sensor_id;sensor_type;location;lat;lon;timestamp;P1;durP1;ratioP1;P2;durP2;ratioP2
52574;SDS011;38468;48.114;-1.684;2023-07-30T00:00:18;5.05;;;1.77;;
52574;SDS011;38468;48.114;-1.684;2023-07-30T00:02:22;8.13;;;1.83;;
52574;SDS011;38468;48.114;-1.684;2023-07-30T00:04:23;4.93;;;1.50;;
52574;SDS011;38468;48.114;-1.684;2023-07-30T00:06:24;11.20;;;2.65;;
52574;SDS011;38468;48.114;-1.684;2023-07-30T00:08:25;4.95;;;1.83;;
52574;SDS011;38468;48.114;-1.684;2023-07-30T00:10:25;6.80;;;1.88;;
52574;SDS011;38468;48.114;-1.684;2023-07-30T00:12:26;5.55;;;1.58;;
52574;SDS011;38468;48.114;-1.684;2023-07-30T00:14:27;10.30;;;1.92;;
52574;SDS011;38468;48.114;-1.684;2023-07-30T00:16:28;5.30;;;1.85;;
52574;SDS011;38468;48.114;-1.684;2023-07-30T00:18:28;6.65;;;2.00;;
52574;SDS011;38468;48.114;-1.684;2023-07-30T00:20:29;3.20;;;1.80;;
52574;SDS011;38468;48.114;-1.684;2023-07-30T00:22:30;4.53;;;2.00;;
52574;SDS011;38468;48.114;-1.684;2023-07-30T00:24:30;11.02;;;2.38;;
52574;SDS011;38468;48.114;-1.684;2023-07-30T00:26:31;4.95;;;1.98;;
52574;SDS011;38468;48.114;-1.684;2023-07-30T00:28:32;4.45;;;1.67;;
52574;SDS011;38468;48.114;-1.684;2023-07-30T00:30:32;3.97;;;1.67;;
52574;SDS011;38468;48.114;-1.684;2023-07-30T00:32:33;8.88;;;2.60;;
52574;SDS011;38468;48.114;-1.684;2023-07-30T00:34:34;8.73;;;2.17;;
52574;SDS011;38468;48.114;-1.684;2023-07-30T00:36:34;5.72;;;2.20;;
52574;SDS011;38468;48.114;-1.684;2023-07-30T00:38:35;4.72;;;1.55;;
52574;SDS011;38468;48.114;-1.684;2023-07-30T00:40:39;3.63;;;1.70;;
52574;SDS011;38468;48.114;-1.684;2023-07-30T00:42:41;4.72;;;2.05;;
52574;SDS011;38468;48.114;-1.684;2023-07-30T00:44:41;5.13;;;1.75;;
52574;SDS011;38468;48.114;-1.684;2023-07-30T00:46:42;6.82;;;2.25;;
52574;SDS011;38468;48.114;-1.684;2023-07-30T00:48:43;5.80;;;1.90;;
52574;SDS011;38468;48.114;-1.684;2023-07-30T00:50:43;7.05;;;2.30;;
52574;SDS011;38468;48.114;-1.684;2023-07-30T00:52:44;7.55;;;1.75;;
52574;SDS011;38468;48.114;-1.684;2023-07-30T00:54:45;3.70;;;2.00;;
52574;SDS011;38468;48.114;-1.684;2023-07-30T00:56:51;8.15;;;2.28;;
52574;SDS011;38468;48.114;-1.684;2023-07-30T00:58:53;6.25;;;2.13;;
52574;SDS011;38468;48.114;-1.684;2023-07-30T01:00:55;5.53;;;1.83;;
52574;SDS011;38468;48.114;-1.684;2023-07-30T01:02:56;7.47;;;2.20;;
52574;SDS011;38468;48.114;-1.684;2023-07-30T01:04:57;5.82;;;1.65;;
52574;SDS011;38468;48.114;-1.684;2023-07-30T01:07:00;5.47;;;1.90;;
52574;SDS011;38468;48.114;-1.684;2023-07-30T01:09:01;5.13;;;1.98;;
52574;SDS011;38468;48.114;-1.684;2023-07-30T01:11:02;5.00;;;2.22;;
52574;SDS011;38468;48.114;-1.684;2023-07-30T01:13:05;7.57;;;3.05;;
52574;SDS011;38468;48.114;-1.684;2023-07-30T01:15:08;4.40;;;1.92;;
52574;SDS011;38468;48.114;-1.684;2023-07-30T01:17:09;6.72;;;2.30;;
52574;SDS011;38468;48.114;-1.684;2023-07-30T01:19:11;4.82;;;1.63;;
52574;SDS011;38468;48.114;-1.684;2023-07-30T01:21:12;7.68;;;2.88;;
52574;SDS011;38468;48.114;-1.684;2023-07-30T01:23:12;4.88;;;1.98;;
52574;SDS011;38468;48.114;-1.684;2023-07-30T01:25:16;5.03;;;1.48;;
52574;SDS011;38468;48.114;-1.684;2023-07-30T01:27:23;7.07;;;2.15;;
52574;SDS011;38468;48.114;-1.684;2023-07-30T01:29:28;3.78;;;1.48;;
52574;SDS011;38468;48.114;-1.684;2023-07-30T01:31:44;6.78;;;2.20;;
52574;SDS011;38468;48.114;-1.684;2023-07-30T01:33:49;9.20;;;2.65;;
52574;SDS011;38468;48.114;-1.684;2023-07-30T01:35:52;6.70;;;1.92;;
52574;SDS011;38468;48.114;-1.684;2023-07-30T01:39:55;7.45;;;2.58;;
52574;SDS011;38468;48.114;-1.684;2023-07-30T01:41:56;7.40;;;2.10;;
52574;SDS011;38468;48.114;-1.684;2023-07-30T01:43:57;7.25;;;2.53;;
52574;SDS011;38468;48.114;-1.684;2023-07-30T01:45:58;8.90;;;2.17;;
52574;SDS011;38468;48.114;-1.684;2023-07-30T01:47:58;12.00;;;2.30;;
52574;SDS011;38468;48.114;-1.684;2023-07-30T01:49:59;8.93;;;2.28;;
52574;SDS011;38468;48.114;-1.684;2023-07-30T01:52:00;6.22;;;2.80;;
52574;SDS011;38468;48.114;-1.684;2023-07-30T01:54:00;5.45;;;2.85;;
52574;SDS011;38468;48.114;-1.684;2023-07-30T01:56:01;7.70;;;2.00;;
52574;SDS011;38468;48.114;-1.684;2023-07-30T01:58:02;9.27;;;2.80;;
52574;SDS011;38468;48.114;-1.684;2023-07-30T02:00:03;11.68;;;3.05;;
52574;SDS011;38468;48.114;-1.684;2023-07-30T02:02:04;6.88;;;2.92;;
52574;SDS011;38468;48.114;-1.684;2023-07-30T02:04:04;4.00;;;2.55;;
52574;SDS011;38468;48.114;-1.684;2023-07-30T02:06:05;7.40;;;2.75;;
52574;SDS011;38468;48.114;-1.684;2023-07-30T02:08:06;9.20;;;2.33;;
52574;SDS011;38468;48.114;-1.684;2023-07-30T02:10:06;9.25;;;2.53;;
52574;SDS011;38468;48.114;-1.684;2023-07-30T02:12:07;8.13;;;2.60;;
52574;SDS011;38468;48.114;-1.684;2023-07-30T02:14:08;6.05;;;2.85;;
52574;SDS011;38468;48.114;-1.684;2023-07-30T02:18:10;11.68;;;3.10;;
52574;SDS011;38468;48.114;-1.684;2023-07-30T02:20:11;7.60;;;2.42;;
52574;SDS011;38468;48.114;-1.684;2023-07-30T02:22:12;9.63;;;2.88;;
52574;SDS011;38468;48.114;-1.684;2023-07-30T02:24:12;14.18;;;3.85;;
52574;SDS011;38468;48.114;-1.684;2023-07-30T02:26:13;9.50;;;2.70;;
52574;SDS011;38468;48.114;-1.684;2023-07-30T02:28:14;20.55;;;3.33;;
52574;SDS011;38468;48.114;-1.684;2023-07-30T02:30:14;5.35;;;2.33;;
52574;SDS011;38468;48.114;-1.684;2023-07-30T02:32:16;7.53;;;2.33;;
52574;SDS011;38468;48.114;-1.684;2023-07-30T02:34:16;7.68;;;3.05;;
52574;SDS011;38468;48.114;-1.684;2023-07-30T02:36:17;7.55;;;2.53;;
52574;SDS011;38468;48.114;-1.684;2023-07-30T02:38:18;7.15;;;2.13;;
52574;SDS011;38468;48.114;-1.684;2023-07-30T02:40:18;6.70;;;2.92;;
52574;SDS011;38468;48.114;-1.684;2023-07-30T02:42:19;9.50;;;2.95;;
52574;SDS011;38468;48.114;-1.684;2023-07-30T02:44:20;9.93;;;2.92;;
52574;SDS011;38468;48.114;-1.684;2023-07-30T02:46:20;10.00;;;2.30;;
52574;SDS011;38468;48.114;-1.684;2023-07-30T02:48:21;18.98;;;2.85;;
52574;SDS011;38468;48.114;-1.684;2023-07-30T02:50:21;9.48;;;2.97;;
52574;SDS011;38468;48.114;-1.684;2023-07-30T02:52:22;8.55;;;3.13;;
52574;SDS011;38468;48.114;-1.684;2023-07-30T02:54:23;11.80;;;3.15;;
52574;SDS011;38468;48.114;-1.684;2023-07-30T02:56:23;10.77;;;3.50;;
52574;SDS011;38468;48.114;-1.684;2023-07-30T02:58:24;9.82;;;2.72;;
52574;SDS011;38468;48.114;-1.684;2023-07-30T03:00:24;7.38;;;3.03;;
52574;SDS011;38468;48.114;-1.684;2023-07-30T03:02:25;6.00;;;2.55;;
52574;SDS011;38468;48.114;-1.684;2023-07-30T03:04:26;9.23;;;2.83;;
52574;SDS011;38468;48.114;-1.684;2023-07-30T03:06:26;6.95;;;2.90;;
52574;SDS011;38468;48.114;-1.684;2023-07-30T03:08:27;9.60;;;3.45;;
52574;SDS011;38468;48.114;-1.684;2023-07-30T03:10:28;5.03;;;2.30;;
52574;SDS011;38468;48.114;-1.684;2023-07-30T03:12:31;9.77;;;3.97;;
52574;SDS011;38468;48.114;-1.684;2023-07-30T03:14:32;13.15;;;3.53;;
52574;SDS011;38468;48.114;-1.684;2023-07-30T03:16:32;8.60;;;2.53;;
52574;SDS011;38468;48.114;-1.684;2023-07-30T03:18:33;6.55;;;3.20;;
52574;SDS011;38468;48.114;-1.684;2023-07-30T03:20:34;9.82;;;3.05;;
52574;SDS011;38468;48.114;-1.684;2023-07-30T03:22:34;13.00;;;3.38;;
52574;SDS011;38468;48.114;-1.684;2023-07-30T03:24:35;11.35;;;3.17;;
52574;SDS011;38468;48.114;-1.684;2023-07-30T03:26:36;13.88;;;2.67;;
52574;SDS011;38468;48.114;-1.684;2023-07-30T03:28:36;16.30;;;3.53;;
52574;SDS011;38468;48.114;-1.684;2023-07-30T03:30:37;9.57;;;2.33;;
52574;SDS011;38468;48.114;-1.684;2023-07-30T03:32:37;12.80;;;2.63;;
52574;SDS011;38468;48.114;-1.684;2023-07-30T03:34:38;11.63;;;2.72;;
52574;SDS011;38468;48.114;-1.684;2023-07-30T03:36:39;8.13;;;3.28;;
52574;SDS011;38468;48.114;-1.684;2023-07-30T03:38:40;7.53;;;2.55;;
52574;SDS011;38468;48.114;-1.684;2023-07-30T03:40:41;9.25;;;3.53;;
52574;SDS011;38468;48.114;-1.684;2023-07-30T03:42:42;11.57;;;3.20;;
52574;SDS011;38468;48.114;-1.684;2023-07-30T03:44:43;9.98;;;3.25;;
52574;SDS011;38468;48.114;-1.684;2023-07-30T03:46:43;8.05;;;3.20;;
52574;SDS011;38468;48.114;-1.684;2023-07-30T03:48:44;9.00;;;3.40;;
52574;SDS011;38468;48.114;-1.684;2023-07-30T03:50:45;9.25;;;3.45;;
52574;SDS011;38468;48.114;-1.684;2023-07-30T03:52:45;6.90;;;2.83;;
52574;SDS011;38468;48.114;-1.684;2023-07-30T03:54:47;10.05;;;3.20;;
52574;SDS011;38468;48.114;-1.684;2023-07-30T03:56:47;5.35;;;2.60;;
52574;SDS011;38468;48.114;-1.684;2023-07-30T03:58:48;7.55;;;3.42;;
52574;SDS011;38468;48.114;-1.684;2023-07-30T04:00:49;12.38;;;2.90;;
52574;SDS011;38468;48.114;-1.684;2023-07-30T04:02:49;8.70;;;3.53;;
52574;SDS011;38468;48.114;-1.684;2023-07-30T04:04:50;10.80;;;3.38;;
52574;SDS011;38468;48.114;-1.684;2023-07-30T04:06:50;8.43;;;3.22;;
52574;SDS011;38468;48.114;-1.684;2023-07-30T04:08:51;9.25;;;2.15;;
52574;SDS011;38468;48.114;-1.684;2023-07-30T04:10:52;12.13;;;3.08;;
52574;SDS011;38468;48.114;-1.684;2023-07-30T04:12:52;15.30;;;3.42;;
52574;SDS011;38468;48.114;-1.684;2023-07-30T04:14:53;11.75;;;3.15;;
52574;SDS011;38468;48.114;-1.684;2023-07-30T04:16:54;7.35;;;2.55;;
52574;SDS011;38468;48.114;-1.684;2023-07-30T04:18:54;8.40;;;3.15;;
52574;SDS011;38468;48.114;-1.684;2023-07-30T04:20:55;10.52;;;3.03;;
52574;SDS011;38468;48.114;-1.684;2023-07-30T04:22:56;6.35;;;2.50;;
52574;SDS011;38468;48.114;-1.684;2023-07-30T04:24:57;5.88;;;2.70;;
52574;SDS011;38468;48.114;-1.684;2023-07-30T04:26:57;12.02;;;3.90;;
52574;SDS011;38468;48.114;-1.684;2023-07-30T04:28:58;10.43;;;3.30;;
52574;SDS011;38468;48.114;-1.684;2023-07-30T04:30:59;11.45;;;3.15;;
52574;SDS011;38468;48.114;-1.684;2023-07-30T04:32:59;8.20;;;2.70;;
52574;SDS011;38468;48.114;-1.684;2023-07-30T04:35:00;9.02;;;3.03;;
52574;SDS011;38468;48.114;-1.684;2023-07-30T04:37:02;8.80;;;2.88;;
52574;SDS011;38468;48.114;-1.684;2023-07-30T04:39:03;12.32;;;3.20;;
52574;SDS011;38468;48.114;-1.684;2023-07-30T04:41:03;12.30;;;3.30;;
52574;SDS011;38468;48.114;-1.684;2023-07-30T04:43:04;12.05;;;3.03;;
52574;SDS011;38468;48.114;-1.684;2023-07-30T04:45:05;5.55;;;2.30;;
52574;SDS011;38468;48.114;-1.684;2023-07-30T04:47:06;11.43;;;2.73;;
52574;SDS011;38468;48.114;-1.684;2023-07-30T04:49:07;5.43;;;2.53;;
52574;SDS011;38468;48.114;-1.684;2023-07-30T04:51:08;11.35;;;2.40;;
52574;SDS011;38468;48.114;-1.684;2023-07-30T04:53:08;8.48;;;2.55;;
52574;SDS011;38468;48.114;-1.684;2023-07-30T04:55:09;9.07;;;3.00;;
52574;SDS011;38468;48.114;-1.684;2023-07-30T04:57:10;8.27;;;2.88;;
52574;SDS011;38468;48.114;-1.684;2023-07-30T04:59:10;7.10;;;2.50;;
52574;SDS011;38468;48.114;-1.684;2023-07-30T05:01:11;7.53;;;2.45;;
52574;SDS011;38468;48.114;-1.684;2023-07-30T05:03:12;16.42;;;4.43;;
52574;SDS011;38468;48.114;-1.684;2023-07-30T05:05:12;14.98;;;3.95;;
52574;SDS011;38468;48.114;-1.684;2023-07-30T05:07:13;9.23;;;3.17;;
52574;SDS011;38468;48.114;-1.684;2023-07-30T05:09:13;11.65;;;3.25;;
52574;SDS011;38468;48.114;-1.684;2023-07-30T05:11:14;9.88;;;3.22;;
52574;SDS011;38468;48.114;-1.684;2023-07-30T05:13:15;10.98;;;2.90;;
52574;SDS011;38468;48.114;-1.684;2023-07-30T05:15:15;9.57;;;3.53;;
52574;SDS011;38468;48.114;-1.684;2023-07-30T05:17:16;8.57;;;3.63;;
52574;SDS011;38468;48.114;-1.684;2023-07-30T05:19:16;7.50;;;4.00;;
52574;SDS011;38468;48.114;-1.684;2023-07-30T05:21:17;8.40;;;3.55;;
52574;SDS011;38468;48.114;-1.684;2023-07-30T05:23:18;5.68;;;2.50;;
52574;SDS011;38468;48.114;-1.684;2023-07-30T05:25:19;10.60;;;2.92;;
52574;SDS011;38468;48.114;-1.684;2023-07-30T05:27:20;9.70;;;2.42;;
52574;SDS011;38468;48.114;-1.684;2023-07-30T05:29:21;8.57;;;2.97;;
52574;SDS011;38468;48.114;-1.684;2023-07-30T05:31:21;8.73;;;3.05;;
52574;SDS011;38468;48.114;-1.684;2023-07-30T05:33:22;10.90;;;3.00;;
52574;SDS011;38468;48.114;-1.684;2023-07-30T05:35:22;10.68;;;3.50;;
52574;SDS011;38468;48.114;-1.684;2023-07-30T05:37:23;7.35;;;3.17;;
52574;SDS011;38468;48.114;-1.684;2023-07-30T05:39:24;12.93;;;4.80;;
52574;SDS011;38468;48.114;-1.684;2023-07-30T05:41:24;13.50;;;3.83;;
52574;SDS011;38468;48.114;-1.684;2023-07-30T05:43:25;10.40;;;3.78;;
52574;SDS011;38468;48.114;-1.684;2023-07-30T05:45:26;7.00;;;3.25;;
52574;SDS011;38468;48.114;-1.684;2023-07-30T05:47:26;13.65;;;3.30;;
52574;SDS011;38468;48.114;-1.684;2023-07-30T05:49:27;7.25;;;2.92;;
52574;SDS011;38468;48.114;-1.684;2023-07-30T05:51:28;8.93;;;3.10;;
52574;SDS011;38468;48.114;-1.684;2023-07-30T05:53:28;14.35;;;4.40;;
52574;SDS011;38468;48.114;-1.684;2023-07-30T05:55:29;16.77;;;3.97;;
52574;SDS011;38468;48.114;-1.684;2023-07-30T05:57:29;11.15;;;3.05;;
52574;SDS011;38468;48.114;-1.684;2023-07-30T05:59:30;10.75;;;3.47;;
52574;SDS011;38468;48.114;-1.684;2023-07-30T06:01:31;7.25;;;3.00;;
52574;SDS011;38468;48.114;-1.684;2023-07-30T06:03:31;9.15;;;2.65;;
52574;SDS011;38468;48.114;-1.684;2023-07-30T06:05:32;7.22;;;3.45;;
52574;SDS011;38468;48.114;-1.684;2023-07-30T06:07:33;9.68;;;3.35;;
52574;SDS011;38468;48.114;-1.684;2023-07-30T06:09:33;14.35;;;3.28;;
52574;SDS011;38468;48.114;-1.684;2023-07-30T06:11:34;10.30;;;3.58;;
52574;SDS011;38468;48.114;-1.684;2023-07-30T06:13:35;8.10;;;3.05;;
52574;SDS011;38468;48.114;-1.684;2023-07-30T06:15:37;12.10;;;3.25;;
52574;SDS011;38468;48.114;-1.684;2023-07-30T06:17:37;12.05;;;4.15;;
52574;SDS011;38468;48.114;-1.684;2023-07-30T06:19:38;11.50;;;3.78;;
52574;SDS011;38468;48.114;-1.684;2023-07-30T06:21:38;6.65;;;2.63;;
52574;SDS011;38468;48.114;-1.684;2023-07-30T06:23:39;5.93;;;2.90;;
52574;SDS011;38468;48.114;-1.684;2023-07-30T06:25:40;10.38;;;3.47;;
52574;SDS011;38468;48.114;-1.684;2023-07-30T06:27:40;9.73;;;3.00;;
52574;SDS011;38468;48.114;-1.684;2023-07-30T06:29:41;10.00;;;2.83;;
52574;SDS011;38468;48.114;-1.684;2023-07-30T06:31:42;6.60;;;3.17;;
52574;SDS011;38468;48.114;-1.684;2023-07-30T06:33:42;11.27;;;3.72;;
52574;SDS011;38468;48.114;-1.684;2023-07-30T06:35:43;6.85;;;2.65;;
52574;SDS011;38468;48.114;-1.684;2023-07-30T06:37:43;5.47;;;3.08;;
52574;SDS011;38468;48.114;-1.684;2023-07-30T06:39:44;12.50;;;4.05;;
52574;SDS011;38468;48.114;-1.684;2023-07-30T06:41:45;14.02;;;4.07;;
52574;SDS011;38468;48.114;-1.684;2023-07-30T06:43:46;12.27;;;3.65;;
52574;SDS011;38468;48.114;-1.684;2023-07-30T06:45:46;8.93;;;2.50;;
52574;SDS011;38468;48.114;-1.684;2023-07-30T06:47:47;8.18;;;3.45;;
52574;SDS011;38468;48.114;-1.684;2023-07-30T06:49:47;5.68;;;2.58;;
52574;SDS011;38468;48.114;-1.684;2023-07-30T06:51:48;6.80;;;3.58;;
52574;SDS011;38468;48.114;-1.684;2023-07-30T06:53:49;8.43;;;3.03;;
52574;SDS011;38468;48.114;-1.684;2023-07-30T06:55:49;9.10;;;4.70;;
52574;SDS011;38468;48.114;-1.684;2023-07-30T06:57:50;7.82;;;3.13;;
52574;SDS011;38468;48.114;-1.684;2023-07-30T06:59:50;11.15;;;3.60;;
52574;SDS011;38468;48.114;-1.684;2023-07-30T07:01:51;16.42;;;4.80;;
52574;SDS011;38468;48.114;-1.684;2023-07-30T07:03:52;10.75;;;3.05;;
52574;SDS011;38468;48.114;-1.684;2023-07-30T07:05:53;13.00;;;4.38;;
52574;SDS011;38468;48.114;-1.684;2023-07-30T07:07:55;13.57;;;5.28;;
52574;SDS011;38468;48.114;-1.684;2023-07-30T07:09:55;12.30;;;4.00;;
52574;SDS011;38468;48.114;-1.684;2023-07-30T07:11:56;9.10;;;3.67;;
52574;SDS011;38468;48.114;-1.684;2023-07-30T07:13:57;7.70;;;3.58;;
52574;SDS011;38468;48.114;-1.684;2023-07-30T07:15:58;10.68;;;3.67;;
52574;SDS011;38468;48.114;-1.684;2023-07-30T07:17:59;8.73;;;3.63;;
52574;SDS011;38468;48.114;-1.684;2023-07-30T07:19:59;11.60;;;5.75;;
52574;SDS011;38468;48.114;-1.684;2023-07-30T07:22:00;6.57;;;3.58;;
52574;SDS011;38468;48.114;-1.684;2023-07-30T07:24:01;11.40;;;4.03;;
52574;SDS011;38468;48.114;-1.684;2023-07-30T07:26:01;7.63;;;3.47;;
52574;SDS011;38468;48.114;-1.684;2023-07-30T07:28:02;10.10;;;4.22;;
52574;SDS011;38468;48.114;-1.684;2023-07-30T07:30:03;9.23;;;3.85;;
52574;SDS011;38468;48.114;-1.684;2023-07-30T07:32:04;13.63;;;4.25;;
52574;SDS011;38468;48.114;-1.684;2023-07-30T07:34:05;13.38;;;5.47;;
52574;SDS011;38468;48.114;-1.684;2023-07-30T07:36:08;16.02;;;5.13;;
52574;SDS011;38468;48.114;-1.684;2023-07-30T07:38:08;11.38;;;4.68;;
52574;SDS011;38468;48.114;-1.684;2023-07-30T07:40:09;13.52;;;4.70;;
52574;SDS011;38468;48.114;-1.684;2023-07-30T07:42:10;13.40;;;4.72;;
52574;SDS011;38468;48.114;-1.684;2023-07-30T07:44:11;13.18;;;5.97;;
52574;SDS011;38468;48.114;-1.684;2023-07-30T07:46:12;15.73;;;6.38;;
52574;SDS011;38468;48.114;-1.684;2023-07-30T07:48:15;11.60;;;4.57;;
52574;SDS011;38468;48.114;-1.684;2023-07-30T07:50:16;18.30;;;5.82;;
52574;SDS011;38468;48.114;-1.684;2023-07-30T07:52:16;17.10;;;5.40;;
52574;SDS011;38468;48.114;-1.684;2023-07-30T07:54:17;12.30;;;4.60;;
52574;SDS011;38468;48.114;-1.684;2023-07-30T07:56:18;12.95;;;4.82;;
52574;SDS011;38468;48.114;-1.684;2023-07-30T07:58:18;11.60;;;5.60;;
52574;SDS011;38468;48.114;-1.684;2023-07-30T08:00:19;14.07;;;4.82;;
52574;SDS011;38468;48.114;-1.684;2023-07-30T08:02:20;16.63;;;5.07;;
52574;SDS011;38468;48.114;-1.684;2023-07-30T08:04:20;9.55;;;5.18;;
52574;SDS011;38468;48.114;-1.684;2023-07-30T08:06:21;11.95;;;4.47;;
52574;SDS011;38468;48.114;-1.684;2023-07-30T08:08:24;10.63;;;4.38;;
52574;SDS011;38468;48.114;-1.684;2023-07-30T08:10:27;10.45;;;4.18;;
52574;SDS011;38468;48.114;-1.684;2023-07-30T08:12:28;14.98;;;5.38;;
52574;SDS011;38468;48.114;-1.684;2023-07-30T08:14:32;10.85;;;4.15;;
52574;SDS011;38468;48.114;-1.684;2023-07-30T08:16:33;15.20;;;5.32;;
52574;SDS011;38468;48.114;-1.684;2023-07-30T08:18:34;13.20;;;4.00;;
52574;SDS011;38468;48.114;-1.684;2023-07-30T08:20:35;11.02;;;5.05;;
52574;SDS011;38468;48.114;-1.684;2023-07-30T08:22:36;10.70;;;4.85;;
52574;SDS011;38468;48.114;-1.684;2023-07-30T08:24:37;8.93;;;4.18;;
52574;SDS011;38468;48.114;-1.684;2023-07-30T08:26:38;8.13;;;4.05;;
52574;SDS011;38468;48.114;-1.684;2023-07-30T08:28:38;7.47;;;4.30;;
52574;SDS011;38468;48.114;-1.684;2023-07-30T08:30:39;12.95;;;4.53;;
52574;SDS011;38468;48.114;-1.684;2023-07-30T08:32:40;14.65;;;4.78;;
52574;SDS011;38468;48.114;-1.684;2023-07-30T08:34:43;16.00;;;5.55;;
52574;SDS011;38468;48.114;-1.684;2023-07-30T08:36:43;8.43;;;4.13;;
52574;SDS011;38468;48.114;-1.684;2023-07-30T08:38:44;12.23;;;4.70;;
52574;SDS011;38468;48.114;-1.684;2023-07-30T08:40:45;22.27;;;5.10;;
52574;SDS011;38468;48.114;-1.684;2023-07-30T08:42:45;8.30;;;4.22;;
52574;SDS011;38468;48.114;-1.684;2023-07-30T08:44:46;11.00;;;3.92;;
52574;SDS011;38468;48.114;-1.684;2023-07-30T08:46:47;9.77;;;4.30;;
52574;SDS011;38468;48.114;-1.684;2023-07-30T08:48:47;9.13;;;5.20;;
52574;SDS011;38468;48.114;-1.684;2023-07-30T08:50:48;11.48;;;4.47;;
52574;SDS011;38468;48.114;-1.684;2023-07-30T08:52:50;10.77;;;4.68;;
52574;SDS011;38468;48.114;-1.684;2023-07-30T08:54:51;16.50;;;4.37;;
52574;SDS011;38468;48.114;-1.684;2023-07-30T08:56:52;9.55;;;4.90;;
52574;SDS011;38468;48.114;-1.684;2023-07-30T08:58:53;16.40;;;5.10;;
52574;SDS011;38468;48.114;-1.684;2023-07-30T09:00:57;9.63;;;4.55;;
52574;SDS011;38468;48.114;-1.684;2023-07-30T09:02:59;10.45;;;4.30;;
52574;SDS011;38468;48.114;-1.684;2023-07-30T09:05:03;11.10;;;5.13;;
52574;SDS011;38468;48.114;-1.684;2023-07-30T09:07:08;10.00;;;5.05;;
52574;SDS011;38468;48.114;-1.684;2023-07-30T09:09:10;10.73;;;5.22;;
52574;SDS011;38468;48.114;-1.684;2023-07-30T09:13:12;8.65;;;5.07;;
52574;SDS011;38468;48.114;-1.684;2023-07-30T09:15:29;8.82;;;4.53;;
52574;SDS011;38468;48.114;-1.684;2023-07-30T09:17:34;12.40;;;4.80;;
52574;SDS011;38468;48.114;-1.684;2023-07-30T09:19:35;15.00;;;4.57;;
52574;SDS011;38468;48.114;-1.684;2023-07-30T09:21:36;12.48;;;5.10;;
52574;SDS011;38468;48.114;-1.684;2023-07-30T09:23:42;9.93;;;3.97;;
52574;SDS011;38468;48.114;-1.684;2023-07-30T09:25:44;7.80;;;4.15;;
52574;SDS011;38468;48.114;-1.684;2023-07-30T09:27:52;15.18;;;4.40;;
52574;SDS011;38468;48.114;-1.684;2023-07-30T09:29:53;9.88;;;4.93;;
52574;SDS011;38468;48.114;-1.684;2023-07-30T09:31:58;8.65;;;4.95;;
52574;SDS011;38468;48.114;-1.684;2023-07-30T09:33:58;16.30;;;4.50;;
52574;SDS011;38468;48.114;-1.684;2023-07-30T09:36:02;10.15;;;4.60;;
52574;SDS011;38468;48.114;-1.684;2023-07-30T09:38:03;14.02;;;4.72;;
52574;SDS011;38468;48.114;-1.684;2023-07-30T09:40:05;12.45;;;4.75;;
52574;SDS011;38468;48.114;-1.684;2023-07-30T09:42:06;9.32;;;4.72;;
52574;SDS011;38468;48.114;-1.684;2023-07-30T09:44:08;14.80;;;4.97;;
52574;SDS011;38468;48.114;-1.684;2023-07-30T09:46:09;9.73;;;4.47;;
52574;SDS011;38468;48.114;-1.684;2023-07-30T09:48:10;10.32;;;4.93;;
52574;SDS011;38468;48.114;-1.684;2023-07-30T09:50:10;13.77;;;4.75;;
52574;SDS011;38468;48.114;-1.684;2023-07-30T09:52:11;13.13;;;4.47;;
52574;SDS011;38468;48.114;-1.684;2023-07-30T09:54:14;12.65;;;4.25;;
52574;SDS011;38468;48.114;-1.684;2023-07-30T09:56:15;9.70;;;3.70;;
52574;SDS011;38468;48.114;-1.684;2023-07-30T09:58:15;9.73;;;4.97;;
52574;SDS011;38468;48.114;-1.684;2023-07-30T10:00:16;10.38;;;5.05;;
52574;SDS011;38468;48.114;-1.684;2023-07-30T10:02:17;9.98;;;4.75;;
52574;SDS011;38468;48.114;-1.684;2023-07-30T10:04:19;7.67;;;4.27;;
52574;SDS011;38468;48.114;-1.684;2023-07-30T10:06:20;9.95;;;3.90;;
52574;SDS011;38468;48.114;-1.684;2023-07-30T10:08:24;8.65;;;4.18;;
52574;SDS011;38468;48.114;-1.684;2023-07-30T10:10:27;9.23;;;4.57;;
52574;SDS011;38468;48.114;-1.684;2023-07-30T10:12:31;14.32;;;4.60;;
52574;SDS011;38468;48.114;-1.684;2023-07-30T10:14:34;8.63;;;4.60;;
52574;SDS011;38468;48.114;-1.684;2023-07-30T10:16:35;11.75;;;5.38;;
52574;SDS011;38468;48.114;-1.684;2023-07-30T10:18:39;9.88;;;4.57;;
52574;SDS011;38468;48.114;-1.684;2023-07-30T10:20:41;8.00;;;4.53;;
52574;SDS011;38468;48.114;-1.684;2023-07-30T10:22:53;10.43;;;4.22;;
52574;SDS011;38468;48.114;-1.684;2023-07-30T10:24:55;7.68;;;4.30;;
52574;SDS011;38468;48.114;-1.684;2023-07-30T10:26:57;6.13;;;3.90;;
52574;SDS011;38468;48.114;-1.684;2023-07-30T10:29:09;6.93;;;3.90;;
52574;SDS011;38468;48.114;-1.684;2023-07-30T10:31:20;12.30;;;4.18;;
52574;SDS011;38468;48.114;-1.684;2023-07-30T10:33:51;7.45;;;4.35;;
52574;SDS011;38468;48.114;-1.684;2023-07-30T10:35:55;8.30;;;4.60;;
52574;SDS011;38468;48.114;-1.684;2023-07-30T10:37:56;6.40;;;3.90;;
52574;SDS011;38468;48.114;-1.684;2023-07-30T10:39:57;9.43;;;3.75;;
52574;SDS011;38468;48.114;-1.684;2023-07-30T10:42:04;10.18;;;3.65;;
52574;SDS011;38468;48.114;-1.684;2023-07-30T10:44:07;8.93;;;3.92;;
52574;SDS011;38468;48.114;-1.684;2023-07-30T10:46:27;8.88;;;4.03;;
52574;SDS011;38468;48.114;-1.684;2023-07-30T10:50:37;9.27;;;4.32;;
52574;SDS011;38468;48.114;-1.684;2023-07-30T10:52:38;9.38;;;4.20;;
52574;SDS011;38468;48.114;-1.684;2023-07-30T10:54:38;10.23;;;3.47;;
52574;SDS011;38468;48.114;-1.684;2023-07-30T10:56:39;8.77;;;3.83;;
52574;SDS011;38468;48.114;-1.684;2023-07-30T10:58:41;10.02;;;4.07;;
52574;SDS011;38468;48.114;-1.684;2023-07-30T11:02:52;9.52;;;3.95;;
52574;SDS011;38468;48.114;-1.684;2023-07-30T11:04:53;8.30;;;4.10;;
52574;SDS011;38468;48.114;-1.684;2023-07-30T11:06:54;6.72;;;3.50;;
52574;SDS011;38468;48.114;-1.684;2023-07-30T11:08:54;5.97;;;3.83;;
52574;SDS011;38468;48.114;-1.684;2023-07-30T11:10:55;8.40;;;3.67;;
52574;SDS011;38468;48.114;-1.684;2023-07-30T11:12:56;9.38;;;3.88;;
52574;SDS011;38468;48.114;-1.684;2023-07-30T11:15:02;8.70;;;3.70;;
52574;SDS011;38468;48.114;-1.684;2023-07-30T11:17:03;9.65;;;3.67;;
52574;SDS011;38468;48.114;-1.684;2023-07-30T11:19:07;8.35;;;4.03;;
52574;SDS011;38468;48.114;-1.684;2023-07-30T11:21:09;8.02;;;3.78;;
52574;SDS011;38468;48.114;-1.684;2023-07-30T11:23:20;5.50;;;3.78;;
52574;SDS011;38468;48.114;-1.684;2023-07-30T11:25:22;8.88;;;3.40;;
52574;SDS011;38468;48.114;-1.684;2023-07-30T11:27:23;8.93;;;3.67;;
52574;SDS011;38468;48.114;-1.684;2023-07-30T11:29:24;6.43;;;3.97;;
52574;SDS011;38468;48.114;-1.684;2023-07-30T11:31:24;6.22;;;3.90;;
52574;SDS011;38468;48.114;-1.684;2023-07-30T11:33:27;11.13;;;4.28;;
52574;SDS011;38468;48.114;-1.684;2023-07-30T11:35:28;8.98;;;3.72;;
52574;SDS011;38468;48.114;-1.684;2023-07-30T11:37:29;10.30;;;4.55;;
52574;SDS011;38468;48.114;-1.684;2023-07-30T11:39:30;9.55;;;4.20;;
52574;SDS011;38468;48.114;-1.684;2023-07-30T11:41:31;6.63;;;3.78;;
52574;SDS011;38468;48.114;-1.684;2023-07-30T11:43:32;6.47;;;3.58;;
52574;SDS011;38468;48.114;-1.684;2023-07-30T11:45:33;6.88;;;3.28;;
52574;SDS011;38468;48.114;-1.684;2023-07-30T11:47:33;6.22;;;3.22;;
52574;SDS011;38468;48.114;-1.684;2023-07-30T11:49:34;9.02;;;4.60;;
52574;SDS011;38468;48.114;-1.684;2023-07-30T11:51:35;4.22;;;3.05;;
52574;SDS011;38468;48.114;-1.684;2023-07-30T11:53:49;7.07;;;3.33;;
52574;SDS011;38468;48.114;-1.684;2023-07-30T11:55:54;7.10;;;3.80;;
52574;SDS011;38468;48.114;-1.684;2023-07-30T11:57:55;9.88;;;3.22;;
52574;SDS011;38468;48.114;-1.684;2023-07-30T11:59:58;7.45;;;3.75;;
52574;SDS011;38468;48.114;-1.684;2023-07-30T12:01:59;9.20;;;3.20;;
52574;SDS011;38468;48.114;-1.684;2023-07-30T12:04:01;7.30;;;3.67;;
52574;SDS011;38468;48.114;-1.684;2023-07-30T12:06:05;7.00;;;3.45;;